Aviation Digital Data Service (ADDS)

Output produced by METARs form (0614 UTC 19 March 2019)
found at http://www.aviationweather.gov/metar/data/
 
Forecast for: SBAR (ARACAJU/SANTA MA, BR)
Text: TAF SBAR 182200Z 1900/1912 08010KT 9999 SCT018 TN26/1908Z TX29/1911Z RMK PEQ
Forecast period: 0000 to 1200 UTC 19 March 2019
Forecast type: FROM: standard forecast or significant change
Winds: from the E (80 degrees) at 12 MPH (10 knots; 5.1 m/s)
Visibility: 6 or more miles 10+ km)
Ceiling: at least 12,000 feet AGL
Clouds: scattered clouds at 1800 feet AGL
Weather: no significant weather forecast for this period